Terminal Aerodrome Forecast
Issued by NWS Birmingham, AL

Current Version | Previous Version | Text Only | Print | Product List | Glossary On
Versions: 1 2 3 4 5 6 7 8 9 10 11 12
000
FTUS44 KBMX 241723
TAFBHM
TAF
KBHM 241723Z 2418/2518 02003KT P6SM FEW070 SCT090
     FM250100 00000KT P6SM SKC
     FM251500 08002KT P6SM FEW090=

USA.gov is the U.S. government's official web portal to all federal, state and local government web resources and services.